sensor_id;sensor_type;location;lat;lon;timestamp;P1;durP1;ratioP1;P2;durP2;ratioP2
26872;SDS011;14445;53.056;4.804;2022-07-24T00:00:35;2.15;;;1.95;;
26872;SDS011;14445;53.056;4.804;2022-07-24T00:03:00;2.20;;;2.05;;
26872;SDS011;14445;53.056;4.804;2022-07-24T00:05:27;2.30;;;2.10;;
26872;SDS011;14445;53.056;4.804;2022-07-24T00:07:53;2.00;;;1.90;;
26872;SDS011;14445;53.056;4.804;2022-07-24T00:10:18;2.15;;;1.95;;
26872;SDS011;14445;53.056;4.804;2022-07-24T00:12:44;2.10;;;1.90;;
26872;SDS011;14445;53.056;4.804;2022-07-24T00:15:09;2.40;;;2.20;;
26872;SDS011;14445;53.056;4.804;2022-07-24T00:17:35;2.00;;;1.90;;
26872;SDS011;14445;53.056;4.804;2022-07-24T00:20:01;2.00;;;1.90;;
26872;SDS011;14445;53.056;4.804;2022-07-24T00:22:28;2.03;;;1.92;;
26872;SDS011;14445;53.056;4.804;2022-07-24T00:24:53;2.20;;;2.00;;
26872;SDS011;14445;53.056;4.804;2022-07-24T00:27:19;2.58;;;2.38;;
26872;SDS011;14445;53.056;4.804;2022-07-24T00:29:44;2.20;;;2.00;;
26872;SDS011;14445;53.056;4.804;2022-07-24T00:32:10;2.50;;;2.30;;
26872;SDS011;14445;53.056;4.804;2022-07-24T00:34:35;2.50;;;2.33;;
26872;SDS011;14445;53.056;4.804;2022-07-24T00:37:01;2.70;;;2.50;;
26872;SDS011;14445;53.056;4.804;2022-07-24T00:39:26;3.70;;;3.30;;
26872;SDS011;14445;53.056;4.804;2022-07-24T00:41:52;3.53;;;3.22;;
26872;SDS011;14445;53.056;4.804;2022-07-24T00:44:18;3.28;;;2.97;;
26872;SDS011;14445;53.056;4.804;2022-07-24T00:46:45;3.35;;;3.05;;
26872;SDS011;14445;53.056;4.804;2022-07-24T00:49:13;4.10;;;3.70;;
26872;SDS011;14445;53.056;4.804;2022-07-24T00:51:40;4.18;;;3.88;;
26872;SDS011;14445;53.056;4.804;2022-07-24T00:54:08;4.90;;;4.50;;
26872;SDS011;14445;53.056;4.804;2022-07-24T00:56:35;4.60;;;4.20;;
26872;SDS011;14445;53.056;4.804;2022-07-24T00:59:01;5.20;;;4.70;;
26872;SDS011;14445;53.056;4.804;2022-07-24T01:01:28;5.55;;;4.80;;
26872;SDS011;14445;53.056;4.804;2022-07-24T01:03:54;3.97;;;3.67;;
26872;SDS011;14445;53.056;4.804;2022-07-24T01:06:20;3.85;;;3.55;;
26872;SDS011;14445;53.056;4.804;2022-07-24T01:08:46;4.20;;;3.80;;
26872;SDS011;14445;53.056;4.804;2022-07-24T01:11:11;4.40;;;3.97;;
26872;SDS011;14445;53.056;4.804;2022-07-24T01:13:38;4.47;;;4.07;;
26872;SDS011;14445;53.056;4.804;2022-07-24T01:16:04;4.38;;;3.80;;
26872;SDS011;14445;53.056;4.804;2022-07-24T01:18:30;4.57;;;4.18;;
26872;SDS011;14445;53.056;4.804;2022-07-24T01:20:56;4.90;;;4.50;;
26872;SDS011;14445;53.056;4.804;2022-07-24T01:23:22;4.35;;;4.05;;
26872;SDS011;14445;53.056;4.804;2022-07-24T01:25:48;4.47;;;4.07;;
26872;SDS011;14445;53.056;4.804;2022-07-24T01:28:13;5.53;;;5.03;;
26872;SDS011;14445;53.056;4.804;2022-07-24T01:30:39;4.72;;;4.32;;
26872;SDS011;14445;53.056;4.804;2022-07-24T01:33:05;4.65;;;4.25;;
26872;SDS011;14445;53.056;4.804;2022-07-24T01:35:30;4.63;;;4.22;;
26872;SDS011;14445;53.056;4.804;2022-07-24T01:37:56;5.85;;;5.15;;
26872;SDS011;14445;53.056;4.804;2022-07-24T01:40:22;5.68;;;5.15;;
26872;SDS011;14445;53.056;4.804;2022-07-24T01:42:47;5.75;;;5.25;;
26872;SDS011;14445;53.056;4.804;2022-07-24T01:45:13;7.40;;;6.70;;
26872;SDS011;14445;53.056;4.804;2022-07-24T01:47:39;6.75;;;6.15;;
26872;SDS011;14445;53.056;4.804;2022-07-24T01:50:05;7.10;;;6.38;;
26872;SDS011;14445;53.056;4.804;2022-07-24T01:52:31;6.38;;;5.82;;
26872;SDS011;14445;53.056;4.804;2022-07-24T01:54:56;6.05;;;5.50;;
26872;SDS011;14445;53.056;4.804;2022-07-24T01:57:22;6.22;;;5.55;;
26872;SDS011;14445;53.056;4.804;2022-07-24T01:59:47;5.40;;;4.82;;
26872;SDS011;14445;53.056;4.804;2022-07-24T02:02:13;5.40;;;4.90;;
26872;SDS011;14445;53.056;4.804;2022-07-24T02:04:38;5.22;;;4.72;;
26872;SDS011;14445;53.056;4.804;2022-07-24T02:07:04;6.30;;;5.70;;
26872;SDS011;14445;53.056;4.804;2022-07-24T02:09:30;6.80;;;6.20;;
26872;SDS011;14445;53.056;4.804;2022-07-24T02:11:55;7.03;;;6.32;;
26872;SDS011;14445;53.056;4.804;2022-07-24T02:14:21;6.18;;;5.57;;
26872;SDS011;14445;53.056;4.804;2022-07-24T02:16:47;6.32;;;5.80;;
26872;SDS011;14445;53.056;4.804;2022-07-24T02:19:12;5.55;;;5.05;;
26872;SDS011;14445;53.056;4.804;2022-07-24T02:21:38;5.95;;;4.90;;
26872;SDS011;14445;53.056;4.804;2022-07-24T02:24:04;6.25;;;5.30;;
26872;SDS011;14445;53.056;4.804;2022-07-24T02:26:30;4.68;;;4.28;;
26872;SDS011;14445;53.056;4.804;2022-07-24T02:28:55;4.25;;;3.85;;
26872;SDS011;14445;53.056;4.804;2022-07-24T02:31:21;3.92;;;3.50;;
26872;SDS011;14445;53.056;4.804;2022-07-24T02:33:47;4.65;;;3.17;;
26872;SDS011;14445;53.056;4.804;2022-07-24T02:36:13;2.90;;;2.50;;
26872;SDS011;14445;53.056;4.804;2022-07-24T02:38:39;3.20;;;2.58;;
26872;SDS011;14445;53.056;4.804;2022-07-24T02:41:05;4.00;;;2.90;;
26872;SDS011;14445;53.056;4.804;2022-07-24T02:43:32;4.25;;;2.80;;
26872;SDS011;14445;53.056;4.804;2022-07-24T02:45:57;3.47;;;2.72;;
26872;SDS011;14445;53.056;4.804;2022-07-24T02:48:23;3.92;;;2.83;;
26872;SDS011;14445;53.056;4.804;2022-07-24T02:50:48;4.25;;;3.40;;
26872;SDS011;14445;53.056;4.804;2022-07-24T02:53:15;5.97;;;3.50;;
26872;SDS011;14445;53.056;4.804;2022-07-24T02:55:40;5.75;;;3.38;;
26872;SDS011;14445;53.056;4.804;2022-07-24T02:58:05;4.20;;;3.08;;
26872;SDS011;14445;53.056;4.804;2022-07-24T03:00:31;4.72;;;3.05;;
26872;SDS011;14445;53.056;4.804;2022-07-24T03:02:57;4.57;;;3.45;;
26872;SDS011;14445;53.056;4.804;2022-07-24T03:05:22;4.38;;;2.90;;
26872;SDS011;14445;53.056;4.804;2022-07-24T03:07:48;3.85;;;2.95;;
26872;SDS011;14445;53.056;4.804;2022-07-24T03:10:14;3.55;;;2.58;;
26872;SDS011;14445;53.056;4.804;2022-07-24T03:12:41;2.67;;;2.40;;
26872;SDS011;14445;53.056;4.804;2022-07-24T03:15:06;3.35;;;2.60;;
26872;SDS011;14445;53.056;4.804;2022-07-24T03:17:33;3.13;;;2.55;;
26872;SDS011;14445;53.056;4.804;2022-07-24T03:19:58;3.22;;;2.40;;
26872;SDS011;14445;53.056;4.804;2022-07-24T03:22:24;3.30;;;2.60;;
26872;SDS011;14445;53.056;4.804;2022-07-24T03:24:50;2.95;;;2.53;;
26872;SDS011;14445;53.056;4.804;2022-07-24T03:27:15;3.00;;;2.50;;
26872;SDS011;14445;53.056;4.804;2022-07-24T03:29:41;4.53;;;3.00;;
26872;SDS011;14445;53.056;4.804;2022-07-24T03:32:06;4.25;;;2.70;;
26872;SDS011;14445;53.056;4.804;2022-07-24T03:34:32;2.67;;;2.38;;
26872;SDS011;14445;53.056;4.804;2022-07-24T03:36:57;3.00;;;2.35;;
26872;SDS011;14445;53.056;4.804;2022-07-24T03:39:23;3.78;;;2.38;;
26872;SDS011;14445;53.056;4.804;2022-07-24T03:41:48;3.85;;;2.45;;
26872;SDS011;14445;53.056;4.804;2022-07-24T03:44:14;3.75;;;2.53;;
26872;SDS011;14445;53.056;4.804;2022-07-24T03:46:40;2.88;;;2.20;;
26872;SDS011;14445;53.056;4.804;2022-07-24T03:49:05;2.40;;;2.20;;
26872;SDS011;14445;53.056;4.804;2022-07-24T03:51:31;3.60;;;2.30;;
26872;SDS011;14445;53.056;4.804;2022-07-24T03:53:56;3.15;;;2.40;;
26872;SDS011;14445;53.056;4.804;2022-07-24T03:56:22;3.58;;;2.13;;
26872;SDS011;14445;53.056;4.804;2022-07-24T03:58:48;2.88;;;2.30;;
26872;SDS011;14445;53.056;4.804;2022-07-24T04:01:13;3.67;;;2.30;;
26872;SDS011;14445;53.056;4.804;2022-07-24T04:03:39;2.85;;;2.00;;
26872;SDS011;14445;53.056;4.804;2022-07-24T04:06:05;2.40;;;2.03;;
26872;SDS011;14445;53.056;4.804;2022-07-24T04:08:32;5.32;;;2.60;;
26872;SDS011;14445;53.056;4.804;2022-07-24T04:10:58;4.10;;;2.40;;
26872;SDS011;14445;53.056;4.804;2022-07-24T04:13:24;4.57;;;2.42;;
26872;SDS011;14445;53.056;4.804;2022-07-24T04:15:51;3.17;;;2.42;;
26872;SDS011;14445;53.056;4.804;2022-07-24T04:18:17;4.63;;;2.35;;
26872;SDS011;14445;53.056;4.804;2022-07-24T04:20:43;3.28;;;2.10;;
26872;SDS011;14445;53.056;4.804;2022-07-24T04:23:08;2.83;;;2.20;;
26872;SDS011;14445;53.056;4.804;2022-07-24T04:25:34;3.60;;;2.40;;
26872;SDS011;14445;53.056;4.804;2022-07-24T04:28:00;4.20;;;2.33;;
26872;SDS011;14445;53.056;4.804;2022-07-24T04:30:26;3.67;;;2.38;;
26872;SDS011;14445;53.056;4.804;2022-07-24T04:32:52;3.50;;;2.22;;
26872;SDS011;14445;53.056;4.804;2022-07-24T04:35:18;3.92;;;2.35;;
26872;SDS011;14445;53.056;4.804;2022-07-24T04:37:43;3.05;;;2.10;;
26872;SDS011;14445;53.056;4.804;2022-07-24T04:40:09;2.72;;;2.10;;
26872;SDS011;14445;53.056;4.804;2022-07-24T04:42:35;3.97;;;2.10;;
26872;SDS011;14445;53.056;4.804;2022-07-24T04:45:01;2.65;;;1.90;;
26872;SDS011;14445;53.056;4.804;2022-07-24T04:47:27;2.20;;;1.88;;
26872;SDS011;14445;53.056;4.804;2022-07-24T04:49:52;2.97;;;1.75;;
26872;SDS011;14445;53.056;4.804;2022-07-24T04:52:18;2.00;;;1.80;;
26872;SDS011;14445;53.056;4.804;2022-07-24T04:54:43;1.95;;;1.73;;
26872;SDS011;14445;53.056;4.804;2022-07-24T04:57:09;2.25;;;2.00;;
26872;SDS011;14445;53.056;4.804;2022-07-24T04:59:34;3.05;;;2.00;;
26872;SDS011;14445;53.056;4.804;2022-07-24T05:02:00;2.85;;;1.92;;
26872;SDS011;14445;53.056;4.804;2022-07-24T05:04:25;2.78;;;1.88;;
26872;SDS011;14445;53.056;4.804;2022-07-24T05:06:51;3.42;;;1.90;;
26872;SDS011;14445;53.056;4.804;2022-07-24T05:09:16;2.65;;;2.08;;
26872;SDS011;14445;53.056;4.804;2022-07-24T05:11:42;3.17;;;2.38;;
26872;SDS011;14445;53.056;4.804;2022-07-24T05:14:07;2.53;;;1.90;;
26872;SDS011;14445;53.056;4.804;2022-07-24T05:16:33;2.30;;;1.80;;
26872;SDS011;14445;53.056;4.804;2022-07-24T05:18:58;4.03;;;2.17;;
26872;SDS011;14445;53.056;4.804;2022-07-24T05:21:24;2.78;;;2.03;;
26872;SDS011;14445;53.056;4.804;2022-07-24T05:23:49;2.13;;;1.88;;
26872;SDS011;14445;53.056;4.804;2022-07-24T05:26:15;3.33;;;2.30;;
26872;SDS011;14445;53.056;4.804;2022-07-24T05:28:40;3.08;;;2.05;;
26872;SDS011;14445;53.056;4.804;2022-07-24T05:31:06;2.30;;;1.90;;
26872;SDS011;14445;53.056;4.804;2022-07-24T05:33:33;2.83;;;2.15;;
26872;SDS011;14445;53.056;4.804;2022-07-24T05:35:58;3.78;;;2.05;;
26872;SDS011;14445;53.056;4.804;2022-07-24T05:38:24;2.67;;;1.92;;
26872;SDS011;14445;53.056;4.804;2022-07-24T05:40:50;2.17;;;1.85;;
26872;SDS011;14445;53.056;4.804;2022-07-24T05:43:15;4.53;;;2.20;;
26872;SDS011;14445;53.056;4.804;2022-07-24T05:45:41;3.08;;;2.15;;
26872;SDS011;14445;53.056;4.804;2022-07-24T05:48:07;3.25;;;2.10;;
26872;SDS011;14445;53.056;4.804;2022-07-24T05:50:32;4.15;;;2.13;;
26872;SDS011;14445;53.056;4.804;2022-07-24T05:52:58;2.80;;;2.30;;
26872;SDS011;14445;53.056;4.804;2022-07-24T05:55:24;4.28;;;2.50;;
26872;SDS011;14445;53.056;4.804;2022-07-24T05:57:49;3.83;;;2.30;;
26872;SDS011;14445;53.056;4.804;2022-07-24T06:00:15;2.92;;;2.20;;
26872;SDS011;14445;53.056;4.804;2022-07-24T06:02:44;3.95;;;2.05;;
26872;SDS011;14445;53.056;4.804;2022-07-24T06:05:14;4.88;;;2.22;;
26872;SDS011;14445;53.056;4.804;2022-07-24T06:07:40;2.70;;;1.95;;
26872;SDS011;14445;53.056;4.804;2022-07-24T06:10:06;3.70;;;2.10;;
26872;SDS011;14445;53.056;4.804;2022-07-24T06:12:32;3.78;;;2.22;;
26872;SDS011;14445;53.056;4.804;2022-07-24T06:14:58;2.92;;;1.90;;
26872;SDS011;14445;53.056;4.804;2022-07-24T06:17:23;2.88;;;2.10;;
26872;SDS011;14445;53.056;4.804;2022-07-24T06:19:49;3.15;;;2.20;;
26872;SDS011;14445;53.056;4.804;2022-07-24T06:22:14;3.22;;;2.30;;
26872;SDS011;14445;53.056;4.804;2022-07-24T06:24:40;5.10;;;2.20;;
26872;SDS011;14445;53.056;4.804;2022-07-24T06:27:05;3.60;;;2.65;;
26872;SDS011;14445;53.056;4.804;2022-07-24T06:29:31;3.58;;;2.13;;
26872;SDS011;14445;53.056;4.804;2022-07-24T06:31:57;4.93;;;2.63;;
26872;SDS011;14445;53.056;4.804;2022-07-24T06:34:22;6.85;;;2.65;;
26872;SDS011;14445;53.056;4.804;2022-07-24T06:36:49;3.58;;;2.10;;
26872;SDS011;14445;53.056;4.804;2022-07-24T06:39:16;3.10;;;2.38;;
26872;SDS011;14445;53.056;4.804;2022-07-24T06:41:42;2.67;;;1.95;;
26872;SDS011;14445;53.056;4.804;2022-07-24T06:44:08;3.33;;;2.05;;
26872;SDS011;14445;53.056;4.804;2022-07-24T06:46:33;4.07;;;2.40;;
26872;SDS011;14445;53.056;4.804;2022-07-24T06:48:59;3.90;;;2.00;;
26872;SDS011;14445;53.056;4.804;2022-07-24T06:51:24;2.65;;;2.00;;
26872;SDS011;14445;53.056;4.804;2022-07-24T06:53:50;5.65;;;2.15;;
26872;SDS011;14445;53.056;4.804;2022-07-24T06:56:16;6.40;;;2.53;;
26872;SDS011;14445;53.056;4.804;2022-07-24T06:58:41;3.00;;;2.00;;
26872;SDS011;14445;53.056;4.804;2022-07-24T07:01:07;3.83;;;2.17;;
26872;SDS011;14445;53.056;4.804;2022-07-24T07:03:33;3.88;;;2.17;;
26872;SDS011;14445;53.056;4.804;2022-07-24T07:05:58;4.00;;;2.15;;
26872;SDS011;14445;53.056;4.804;2022-07-24T07:08:24;4.38;;;1.98;;
26872;SDS011;14445;53.056;4.804;2022-07-24T07:10:49;2.90;;;2.20;;
26872;SDS011;14445;53.056;4.804;2022-07-24T07:13:15;3.33;;;2.20;;
26872;SDS011;14445;53.056;4.804;2022-07-24T07:15:41;3.63;;;2.33;;
26872;SDS011;14445;53.056;4.804;2022-07-24T07:18:06;6.40;;;2.42;;
26872;SDS011;14445;53.056;4.804;2022-07-24T07:20:32;4.65;;;2.30;;
26872;SDS011;14445;53.056;4.804;2022-07-24T07:22:58;6.53;;;2.30;;
26872;SDS011;14445;53.056;4.804;2022-07-24T07:25:23;4.53;;;2.25;;
26872;SDS011;14445;53.056;4.804;2022-07-24T07:27:49;8.43;;;2.40;;
26872;SDS011;14445;53.056;4.804;2022-07-24T07:30:15;5.03;;;2.47;;
26872;SDS011;14445;53.056;4.804;2022-07-24T07:32:41;5.03;;;2.53;;
26872;SDS011;14445;53.056;4.804;2022-07-24T07:35:06;3.58;;;2.20;;
26872;SDS011;14445;53.056;4.804;2022-07-24T07:37:33;4.97;;;2.42;;
26872;SDS011;14445;53.056;4.804;2022-07-24T07:39:58;4.50;;;2.25;;
26872;SDS011;14445;53.056;4.804;2022-07-24T07:42:24;3.95;;;2.08;;
26872;SDS011;14445;53.056;4.804;2022-07-24T07:44:50;3.88;;;2.00;;
26872;SDS011;14445;53.056;4.804;2022-07-24T07:47:16;4.18;;;2.10;;
26872;SDS011;14445;53.056;4.804;2022-07-24T07:49:41;3.35;;;1.92;;
26872;SDS011;14445;53.056;4.804;2022-07-24T07:52:07;4.20;;;2.10;;
26872;SDS011;14445;53.056;4.804;2022-07-24T07:54:33;3.80;;;2.03;;
26872;SDS011;14445;53.056;4.804;2022-07-24T07:56:58;5.75;;;2.33;;
26872;SDS011;14445;53.056;4.804;2022-07-24T07:59:24;4.22;;;2.25;;
26872;SDS011;14445;53.056;4.804;2022-07-24T08:01:49;4.57;;;2.10;;
26872;SDS011;14445;53.056;4.804;2022-07-24T08:04:15;3.63;;;2.20;;
26872;SDS011;14445;53.056;4.804;2022-07-24T08:06:41;3.22;;;2.08;;
26872;SDS011;14445;53.056;4.804;2022-07-24T08:09:06;5.13;;;2.33;;
26872;SDS011;14445;53.056;4.804;2022-07-24T08:11:32;4.57;;;2.53;;
26872;SDS011;14445;53.056;4.804;2022-07-24T08:13:58;4.13;;;2.25;;
26872;SDS011;14445;53.056;4.804;2022-07-24T08:16:24;4.93;;;2.63;;
26872;SDS011;14445;53.056;4.804;2022-07-24T08:18:49;5.90;;;2.42;;
26872;SDS011;14445;53.056;4.804;2022-07-24T08:21:15;4.95;;;2.33;;
26872;SDS011;14445;53.056;4.804;2022-07-24T08:23:43;4.57;;;2.10;;
26872;SDS011;14445;53.056;4.804;2022-07-24T08:26:11;3.67;;;2.20;;
26872;SDS011;14445;53.056;4.804;2022-07-24T08:28:37;6.40;;;2.30;;
26872;SDS011;14445;53.056;4.804;2022-07-24T08:31:03;4.15;;;2.20;;
26872;SDS011;14445;53.056;4.804;2022-07-24T08:33:28;4.35;;;2.10;;
26872;SDS011;14445;53.056;4.804;2022-07-24T08:35:54;5.10;;;2.45;;
26872;SDS011;14445;53.056;4.804;2022-07-24T08:38:20;4.88;;;2.30;;
26872;SDS011;14445;53.056;4.804;2022-07-24T08:40:45;4.45;;;2.30;;
26872;SDS011;14445;53.056;4.804;2022-07-24T08:43:11;4.20;;;2.20;;
26872;SDS011;14445;53.056;4.804;2022-07-24T08:45:37;3.85;;;2.40;;
26872;SDS011;14445;53.056;4.804;2022-07-24T08:48:05;3.17;;;2.33;;
26872;SDS011;14445;53.056;4.804;2022-07-24T08:50:32;3.13;;;2.17;;
26872;SDS011;14445;53.056;4.804;2022-07-24T08:52:59;4.10;;;2.20;;
26872;SDS011;14445;53.056;4.804;2022-07-24T08:55:28;4.57;;;1.95;;
26872;SDS011;14445;53.056;4.804;2022-07-24T08:57:58;3.72;;;2.00;;
26872;SDS011;14445;53.056;4.804;2022-07-24T09:00:25;4.18;;;2.40;;
26872;SDS011;14445;53.056;4.804;2022-07-24T09:02:51;4.15;;;2.42;;
26872;SDS011;14445;53.056;4.804;2022-07-24T09:05:17;6.50;;;2.45;;
26872;SDS011;14445;53.056;4.804;2022-07-24T09:07:43;6.20;;;2.35;;
26872;SDS011;14445;53.056;4.804;2022-07-24T09:10:10;4.95;;;2.13;;
26872;SDS011;14445;53.056;4.804;2022-07-24T09:12:38;3.75;;;2.10;;
26872;SDS011;14445;53.056;4.804;2022-07-24T09:15:20;3.55;;;2.03;;
26872;SDS011;14445;53.056;4.804;2022-07-24T09:17:56;5.18;;;2.22;;
26872;SDS011;14445;53.056;4.804;2022-07-24T09:20:24;4.10;;;2.17;;
26872;SDS011;14445;53.056;4.804;2022-07-24T09:22:57;6.47;;;2.20;;
26872;SDS011;14445;53.056;4.804;2022-07-24T09:25:25;4.95;;;2.35;;
26872;SDS011;14445;53.056;4.804;2022-07-24T09:27:56;4.57;;;2.42;;
26872;SDS011;14445;53.056;4.804;2022-07-24T09:30:30;6.30;;;2.22;;
26872;SDS011;14445;53.056;4.804;2022-07-24T09:35:38;4.28;;;2.17;;
26872;SDS011;14445;53.056;4.804;2022-07-24T09:38:07;4.13;;;2.30;;
26872;SDS011;14445;53.056;4.804;2022-07-24T09:40:42;5.32;;;2.42;;
26872;SDS011;14445;53.056;4.804;2022-07-24T09:43:22;6.72;;;2.42;;
26872;SDS011;14445;53.056;4.804;2022-07-24T09:46:00;4.50;;;2.20;;
26872;SDS011;14445;53.056;4.804;2022-07-24T09:50:54;6.47;;;2.50;;
26872;SDS011;14445;53.056;4.804;2022-07-24T09:53:22;3.75;;;2.20;;
26872;SDS011;14445;53.056;4.804;2022-07-24T09:55:57;4.20;;;2.25;;
26872;SDS011;14445;53.056;4.804;2022-07-24T09:58:28;5.15;;;2.40;;
26872;SDS011;14445;53.056;4.804;2022-07-24T10:00:56;4.78;;;2.08;;
26872;SDS011;14445;53.056;4.804;2022-07-24T10:03:27;5.22;;;2.40;;
26872;SDS011;14445;53.056;4.804;2022-07-24T10:05:55;4.05;;;2.10;;
26872;SDS011;14445;53.056;4.804;2022-07-24T10:08:22;5.70;;;2.20;;
26872;SDS011;14445;53.056;4.804;2022-07-24T10:10:49;4.70;;;2.10;;
26872;SDS011;14445;53.056;4.804;2022-07-24T10:13:15;3.55;;;2.15;;
26872;SDS011;14445;53.056;4.804;2022-07-24T10:18:46;4.35;;;2.20;;
26872;SDS011;14445;53.056;4.804;2022-07-24T10:21:17;3.33;;;2.30;;
26872;SDS011;14445;53.056;4.804;2022-07-24T10:26:41;3.78;;;2.10;;
26872;SDS011;14445;53.056;4.804;2022-07-24T10:29:20;3.50;;;2.28;;
26872;SDS011;14445;53.056;4.804;2022-07-24T10:31:48;4.32;;;2.42;;
26872;SDS011;14445;53.056;4.804;2022-07-24T10:39:39;3.78;;;2.30;;
26872;SDS011;14445;53.056;4.804;2022-07-24T10:42:19;3.00;;;2.05;;
26872;SDS011;14445;53.056;4.804;2022-07-24T10:45:04;5.72;;;2.50;;
26872;SDS011;14445;53.056;4.804;2022-07-24T10:47:44;3.25;;;2.10;;
26872;SDS011;14445;53.056;4.804;2022-07-24T10:50:11;4.90;;;2.40;;
26872;SDS011;14445;53.056;4.804;2022-07-24T10:52:39;3.85;;;2.30;;
26872;SDS011;14445;53.056;4.804;2022-07-24T10:58:01;5.47;;;2.70;;
26872;SDS011;14445;53.056;4.804;2022-07-24T11:00:39;4.32;;;2.33;;
26872;SDS011;14445;53.056;4.804;2022-07-24T11:03:29;4.10;;;2.17;;
26872;SDS011;14445;53.056;4.804;2022-07-24T11:06:04;3.97;;;2.10;;
26872;SDS011;14445;53.056;4.804;2022-07-24T11:08:31;3.70;;;2.15;;
26872;SDS011;14445;53.056;4.804;2022-07-24T11:11:16;3.58;;;1.92;;
26872;SDS011;14445;53.056;4.804;2022-07-24T11:13:47;4.30;;;2.10;;
26872;SDS011;14445;53.056;4.804;2022-07-24T11:16:17;3.42;;;2.20;;
26872;SDS011;14445;53.056;4.804;2022-07-24T11:21:31;3.13;;;2.10;;
26872;SDS011;14445;53.056;4.804;2022-07-24T11:29:18;4.72;;;2.13;;
26872;SDS011;14445;53.056;4.804;2022-07-24T11:31:49;2.63;;;1.90;;
26872;SDS011;14445;53.056;4.804;2022-07-24T11:34:18;3.03;;;2.13;;
26872;SDS011;14445;53.056;4.804;2022-07-24T11:36:44;4.22;;;2.13;;
26872;SDS011;14445;53.056;4.804;2022-07-24T11:39:16;4.97;;;2.22;;
26872;SDS011;14445;53.056;4.804;2022-07-24T11:41:46;3.53;;;2.20;;
26872;SDS011;14445;53.056;4.804;2022-07-24T11:44:14;5.53;;;2.15;;
26872;SDS011;14445;53.056;4.804;2022-07-24T11:46:46;3.25;;;1.90;;
26872;SDS011;14445;53.056;4.804;2022-07-24T11:49:11;4.07;;;2.30;;
26872;SDS011;14445;53.056;4.804;2022-07-24T11:51:43;3.28;;;1.80;;
26872;SDS011;14445;53.056;4.804;2022-07-24T11:54:13;4.20;;;1.80;;
26872;SDS011;14445;53.056;4.804;2022-07-24T11:56:44;3.03;;;1.80;;
26872;SDS011;14445;53.056;4.804;2022-07-24T12:02:08;4.00;;;1.85;;
26872;SDS011;14445;53.056;4.804;2022-07-24T12:04:36;2.85;;;1.90;;
26872;SDS011;14445;53.056;4.804;2022-07-24T12:07:06;2.35;;;1.63;;
26872;SDS011;14445;53.056;4.804;2022-07-24T12:09:44;3.40;;;1.95;;
26872;SDS011;14445;53.056;4.804;2022-07-24T12:15:03;3.38;;;2.05;;
26872;SDS011;14445;53.056;4.804;2022-07-24T12:17:30;3.72;;;1.70;;
26872;SDS011;14445;53.056;4.804;2022-07-24T12:19:58;3.15;;;2.00;;
26872;SDS011;14445;53.056;4.804;2022-07-24T12:22:24;3.00;;;1.80;;
26872;SDS011;14445;53.056;4.804;2022-07-24T12:24:52;1.95;;;1.73;;
26872;SDS011;14445;53.056;4.804;2022-07-24T12:27:31;3.60;;;1.90;;
26872;SDS011;14445;53.056;4.804;2022-07-24T12:30:02;3.53;;;2.00;;
26872;SDS011;14445;53.056;4.804;2022-07-24T12:35:32;2.75;;;1.77;;
26872;SDS011;14445;53.056;4.804;2022-07-24T12:38:00;2.03;;;1.77;;
26872;SDS011;14445;53.056;4.804;2022-07-24T12:40:29;3.38;;;2.05;;
26872;SDS011;14445;53.056;4.804;2022-07-24T12:43:01;2.88;;;1.73;;
26872;SDS011;14445;53.056;4.804;2022-07-24T12:45:37;3.42;;;1.92;;
26872;SDS011;14445;53.056;4.804;2022-07-24T12:48:07;2.67;;;1.90;;
26872;SDS011;14445;53.056;4.804;2022-07-24T12:50:57;2.10;;;1.90;;
26872;SDS011;14445;53.056;4.804;2022-07-24T12:53:29;3.58;;;1.95;;
26872;SDS011;14445;53.056;4.804;2022-07-24T12:55:59;2.22;;;1.65;;
26872;SDS011;14445;53.056;4.804;2022-07-24T12:58:29;1.95;;;1.70;;
26872;SDS011;14445;53.056;4.804;2022-07-24T13:00:55;2.20;;;1.90;;
26872;SDS011;14445;53.056;4.804;2022-07-24T13:03:25;1.83;;;1.73;;
26872;SDS011;14445;53.056;4.804;2022-07-24T13:05:54;3.67;;;1.88;;
26872;SDS011;14445;53.056;4.804;2022-07-24T13:08:20;2.72;;;2.03;;
26872;SDS011;14445;53.056;4.804;2022-07-24T13:10:46;2.17;;;1.60;;
26872;SDS011;14445;53.056;4.804;2022-07-24T13:13:11;3.67;;;1.75;;
26872;SDS011;14445;53.056;4.804;2022-07-24T13:15:37;2.35;;;1.80;;
26872;SDS011;14445;53.056;4.804;2022-07-24T13:18:02;3.03;;;1.80;;
26872;SDS011;14445;53.056;4.804;2022-07-24T13:20:28;2.72;;;2.05;;
26872;SDS011;14445;53.056;4.804;2022-07-24T13:22:54;1.88;;;1.67;;
26872;SDS011;14445;53.056;4.804;2022-07-24T13:25:19;2.40;;;1.70;;
26872;SDS011;14445;53.056;4.804;2022-07-24T13:27:45;1.85;;;1.60;;
26872;SDS011;14445;53.056;4.804;2022-07-24T13:30:11;2.05;;;1.80;;
26872;SDS011;14445;53.056;4.804;2022-07-24T13:32:37;3.40;;;1.88;;
26872;SDS011;14445;53.056;4.804;2022-07-24T13:35:02;1.90;;;1.50;;
26872;SDS011;14445;53.056;4.804;2022-07-24T13:37:28;1.85;;;1.50;;
26872;SDS011;14445;53.056;4.804;2022-07-24T13:39:53;2.25;;;1.70;;
26872;SDS011;14445;53.056;4.804;2022-07-24T13:42:19;1.73;;;1.63;;
26872;SDS011;14445;53.056;4.804;2022-07-24T13:44:44;2.85;;;1.65;;
26872;SDS011;14445;53.056;4.804;2022-07-24T13:47:10;1.60;;;1.50;;
26872;SDS011;14445;53.056;4.804;2022-07-24T13:49:35;2.05;;;1.70;;
26872;SDS011;14445;53.056;4.804;2022-07-24T13:52:01;2.10;;;1.60;;
26872;SDS011;14445;53.056;4.804;2022-07-24T13:54:26;1.70;;;1.50;;
26872;SDS011;14445;53.056;4.804;2022-07-24T13:56:52;1.98;;;1.45;;
26872;SDS011;14445;53.056;4.804;2022-07-24T13:59:18;2.05;;;1.63;;
26872;SDS011;14445;53.056;4.804;2022-07-24T14:01:43;3.53;;;1.50;;
26872;SDS011;14445;53.056;4.804;2022-07-24T14:04:09;1.90;;;1.70;;
26872;SDS011;14445;53.056;4.804;2022-07-24T14:06:35;2.88;;;1.58;;
26872;SDS011;14445;53.056;4.804;2022-07-24T14:09:04;3.72;;;1.80;;
26872;SDS011;14445;53.056;4.804;2022-07-24T14:11:29;1.85;;;1.70;;
26872;SDS011;14445;53.056;4.804;2022-07-24T14:13:56;1.88;;;1.52;;
26872;SDS011;14445;53.056;4.804;2022-07-24T14:16:21;2.15;;;1.80;;
26872;SDS011;14445;53.056;4.804;2022-07-24T14:18:47;2.75;;;1.77;;
26872;SDS011;14445;53.056;4.804;2022-07-24T14:21:13;3.55;;;1.63;;
26872;SDS011;14445;53.056;4.804;2022-07-24T14:23:39;2.00;;;1.70;;
26872;SDS011;14445;53.056;4.804;2022-07-24T14:26:05;2.38;;;1.73;;
26872;SDS011;14445;53.056;4.804;2022-07-24T14:28:31;2.08;;;1.88;;
26872;SDS011;14445;53.056;4.804;2022-07-24T14:30:56;2.38;;;1.92;;
26872;SDS011;14445;53.056;4.804;2022-07-24T14:33:22;2.47;;;2.00;;
26872;SDS011;14445;53.056;4.804;2022-07-24T14:35:47;2.90;;;1.95;;
26872;SDS011;14445;53.056;4.804;2022-07-24T14:38:14;2.53;;;2.05;;
26872;SDS011;14445;53.056;4.804;2022-07-24T14:40:39;2.55;;;1.85;;
26872;SDS011;14445;53.056;4.804;2022-07-24T14:43:05;2.70;;;2.25;;
26872;SDS011;14445;53.056;4.804;2022-07-24T14:45:31;2.95;;;2.20;;
26872;SDS011;14445;53.056;4.804;2022-07-24T14:47:57;3.38;;;1.90;;
26872;SDS011;14445;53.056;4.804;2022-07-24T14:50:22;3.03;;;1.75;;
26872;SDS011;14445;53.056;4.804;2022-07-24T14:52:48;1.98;;;1.88;;
26872;SDS011;14445;53.056;4.804;2022-07-24T14:55:13;2.58;;;1.67;;
26872;SDS011;14445;53.056;4.804;2022-07-24T14:57:39;2.80;;;1.70;;
26872;SDS011;14445;53.056;4.804;2022-07-24T15:00:05;2.15;;;1.90;;
26872;SDS011;14445;53.056;4.804;2022-07-24T15:02:32;2.33;;;2.10;;
26872;SDS011;14445;53.056;4.804;2022-07-24T15:04:57;2.05;;;1.85;;
26872;SDS011;14445;53.056;4.804;2022-07-24T15:07:23;1.80;;;1.70;;
26872;SDS011;14445;53.056;4.804;2022-07-24T15:09:49;2.33;;;1.90;;
26872;SDS011;14445;53.056;4.804;2022-07-24T15:12:15;2.20;;;2.00;;
26872;SDS011;14445;53.056;4.804;2022-07-24T15:14:40;2.80;;;1.80;;
26872;SDS011;14445;53.056;4.804;2022-07-24T15:17:06;1.92;;;1.70;;
26872;SDS011;14445;53.056;4.804;2022-07-24T15:19:31;2.08;;;1.90;;
26872;SDS011;14445;53.056;4.804;2022-07-24T15:21:57;2.50;;;2.20;;